Time;durP1;ratioP1;P1;durP2;ratioP2;P2;SDS_P1;SDS_P2;PMS_P1;PMS_P2;Temp;Humidity;BMP_temperature;BMP_pressure;BME280_temperature;BME280_humidity;BME280_pressure;Samples;Min_cycle;Max_cycle;Signal;HPM_P1;HPM_P2
2021/04/10 00:00:09;;;;;;;;;;;;;;;;;;2115400;28;44729;-65
2021/04/10 00:01:11;;;;;;;;;;;;;;;;;;2107117;28;43162;-64
2021/04/10 00:02:12;;;;;;;;;;;;;;;;;;2114775;28;43911;-64
2021/04/10 00:03:14;;;;;;;;;;;;;;;;;;2115284;28;45122;-65
2021/04/10 00:04:15;;;;;;;;;;;;;;;;;;2115081;28;45166;-65
2021/04/10 00:05:17;;;;;;;;;;;;;;;;;;2115146;28;44267;-65
2021/04/10 00:06:18;;;;;;;;;;;;;;;;;;2106959;28;45499;-64
2021/04/10 00:07:19;;;;;;;;;;;;;;;;;;2115227;28;44983;-65
2021/04/10 00:08:20;;;;;;;;;;;;;;;;;;2115669;28;43899;-64
2021/04/10 00:09:21;;;;;;;;;;;;;;;;;;2115077;28;44069;-65
2021/04/10 00:10:25;;;;;;;;;;;;;;;;;;2106467;28;42705;-65
2021/04/10 00:11:27;;;;;;;;;;;;;;;;;;2115026;28;45247;-65
2021/04/10 00:12:28;;;;;;;;;;;;;;;;;;2114833;28;44292;-65
2021/04/10 00:13:28;;;;;;;;;;;;;;;;;;2107414;28;45164;-64
2021/04/10 00:14:29;;;;;;;;;;;;;;;;;;2106319;28;44088;-65
2021/04/10 00:15:31;;;;;;;;;;;;;;;;;;2114917;28;46742;-65
2021/04/10 00:16:33;;;;;;;;;;;;;;;;;;2114896;28;46776;-65
2021/04/10 00:17:34;;;;;;;;;;;;;;;;;;2115174;28;46870;-65
2021/04/10 00:18:35;;;;;;;;;;;;;;;;;;2114857;28;46533;-65
2021/04/10 00:19:35;;;;;;;;;;;;;;;;;;2115137;28;44174;-65
2021/04/10 00:20:36;;;;;;;;;;;;;;;;;;2114683;28;46491;-65
2021/04/10 00:21:40;;;;;;;;;;;;;;;;;;2114831;28;45388;-66
2021/04/10 00:22:41;;;;;;;;;;;;;;;;;;2114854;28;43939;-65
2021/04/10 00:23:45;;;;;;;;;;;;;;;;;;2115079;28;45619;-65
2021/04/10 00:24:46;;;;;;;;;;;;;;;;;;2114963;28;45259;-65
2021/04/10 00:25:47;;;;;;;;;;;;;;;;;;2114986;27;45592;-65
2021/04/10 00:26:47;;;;;;;;;;;;;;;;;;2115664;28;45446;-65
2021/04/10 00:27:49;;;;;;;;;;;;;;;;;;2115000;28;45717;-64
2021/04/10 00:28:49;;;;;;;;;;;;;;;;;;2114966;28;45667;-64
2021/04/10 00:29:50;;;;;;;;;;;;;;;;;;2115541;28;43920;-64
2021/04/10 00:30:51;;;;;;;;;;;;;;;;;;2114956;28;45531;-64
2021/04/10 00:31:52;;;;;;;;;;;;;;;;;;2114842;28;45359;-64
2021/04/10 00:32:53;;;;;;;;;;;;;;;;;;2114990;28;43386;-64
2021/04/10 00:33:54;;;;;;;;;;;;;;;;;;2106562;28;45165;-64
2021/04/10 00:34:55;;;;;;;;;;;;;;;;;;2115268;28;46750;-64
2021/04/10 00:35:56;;;;;;;;;;;;;;;;;;2106028;28;43246;-65
2021/04/10 00:36:57;;;;;;;;;;;;;;;;;;2114647;28;46129;-65
2021/04/10 00:37:58;;;;;;;;;;;;;;;;;;2114653;28;47025;-65
2021/04/10 00:38:59;;;;;;;;;;;;;;;;;;2114933;28;45692;-65
2021/04/10 00:40:00;;;;;;;;;;;;;;;;;;2114855;28;45479;-65
2021/04/10 00:41:01;;;;;;;;;;;;;;;;;;2114868;28;45588;-65
2021/04/10 00:42:02;;;;;;;;;;;;;;;;;;2114520;28;46832;-65
2021/04/10 00:43:03;;;;;;;;;;;;;;;;;;2106539;28;45892;-66
2021/04/10 00:44:04;;;;;;;;;;;;;;;;;;2114660;28;44459;-65
2021/04/10 00:45:06;;;;;;;;;;;;;;;;;;2114864;28;46761;-65
2021/04/10 00:46:07;;;;;;;;;;;;;;;;;;2114825;28;46567;-65
2021/04/10 00:47:08;;;;;;;;;;;;;;;;;;2114952;28;45641;-65
2021/04/10 00:48:09;;;;;;;;;;;;;;;;;;2114713;28;46167;-66
2021/04/10 00:49:10;;;;;;;;;;;;;;;;;;2114839;28;45927;-65
2021/04/10 00:50:11;;;;;;;;;;;;;;;;;;2115410;28;46026;-65
2021/04/10 00:51:12;;;;;;;;;;;;;;;;;;2114870;28;46116;-65
2021/04/10 00:52:14;;;;;;;;;;;;;;;;;;2114303;28;45546;-65
2021/04/10 00:53:16;;;;;;;;;;;;;;;;;;2114896;28;47212;-66
2021/04/10 00:54:16;;;;;;;;;;;;;;;;;;2115645;27;43560;-65
2021/04/10 00:55:17;;;;;;;;;;;;;;;;;;2115256;27;45807;-64
2021/04/10 00:56:18;;;;;;;;;;;;;;;;;;2115172;28;46930;-64
2021/04/10 00:57:19;;;;;;;;;;;;;;;;;;2115077;28;45555;-64
2021/04/10 00:58:20;;;;;;;;;;;;;;;;;;2114594;28;45249;-64
2021/04/10 00:59:21;;;;;;;;;;;;;;;;;;2114585;28;46346;-64
2021/04/10 01:00:22;;;;;;;;;;;;;;;;;;2114626;28;43289;-64
2021/04/10 01:01:24;;;;;;;;;;;;;;;;;;2115035;27;43624;-64
2021/04/10 01:02:26;;;;;;;;;;;;;;;;;;2115014;27;45244;-64
2021/04/10 01:03:27;;;;;;;;;;;;;;;;;;2114734;28;43947;-63
2021/04/10 01:04:28;;;;;;;;;;;;;;;;;;2114472;28;45592;-64
2021/04/10 01:05:29;;;;;;;;;;;;;;;;;;2114617;28;44285;-64
2021/04/10 01:06:30;;;;;;;;;;;;;;;;;;2114480;28;45082;-64
2021/04/10 01:07:31;;;;;;;;;;;;;;;;;;2114633;28;45370;-64
2021/04/10 01:08:32;;;;;;;;;;;;;;;;;;2114614;28;45261;-65
2021/04/10 01:09:33;;;;;;;;;;;;;;;;;;2114541;28;46477;-65
2021/04/10 01:10:34;;;;;;;;;;;;;;;;;;2114481;28;45357;-66
2021/04/10 01:11:50;;;;;;;;;;;;;;;;;;2114357;28;43803;-64
2021/04/10 01:13:01;;;;;;;;;;;;;;;;;;2114595;28;44385;-65
2021/04/10 01:14:11;;;;;;;;;;;;;;;;;;2115139;27;45664;-66
2021/04/10 01:15:24;;;;;;;;;;;;;;;;;;2115076;28;45140;-65
2021/04/10 01:16:30;;;;;;;;;;;;;;;;;;2114593;28;46594;-65
2021/04/10 01:17:32;;;;;;;;;;;;;;;;;;2114409;28;45598;-63
2021/04/10 01:18:40;;;;;;;;;;;;;;;;;;2114677;28;46196;-63
2021/04/10 01:20:08;;;;;;;;;;;;;;;;;;2115047;28;45566;-66
2021/04/10 01:21:15;;;;;;;;;;;;;;;;;;2115080;28;44223;-65
2021/04/10 01:22:28;;;;;;;;;;;;;;;;;;2114000;28;47135;-66
2021/04/10 01:23:35;;;;;;;;;;;;;;;;;;2114537;28;45207;-66
2021/04/10 01:24:59;;;;;;;;;;;;;;;;;;2114431;28;45556;-65
2021/04/10 01:26:00;;;;;;;;;;;;;;;;;;2103542;28;44653;-65
2021/04/10 01:27:04;;;;;;;;;;;;;;;;;;2114533;28;44979;-66
2021/04/10 01:28:07;;;;;;;;;;;;;;;;;;2114780;28;44828;-66
2021/04/10 01:29:13;;;;;;;;;;;;;;;;;;2114606;28;44096;-65
2021/04/10 01:30:15;;;;;;;;;;;;;;;;;;2106583;28;46478;-66
2021/04/10 01:31:16;;;;;;;;;;;;;;;;;;2114672;28;45287;-66
2021/04/10 01:32:19;;;;;;;;;;;;;;;;;;2114130;28;44426;-67
2021/04/10 01:33:21;;;;;;;;;;;;;;;;;;2114440;28;46201;-67
2021/04/10 01:34:22;;;;;;;;;;;;;;;;;;2114488;28;45377;-66
2021/04/10 01:35:25;;;;;;;;;;;;;;;;;;2106225;28;45393;-67
2021/04/10 01:36:28;;;;;;;;;;;;;;;;;;2106665;28;45776;-66
2021/04/10 01:37:30;;;;;;;;;;;;;;;;;;2106892;28;44097;-67
2021/04/10 01:38:31;;;;;;;;;;;;;;;;;;2114507;28;46370;-68
2021/04/10 01:39:33;;;;;;;;;;;;;;;;;;2114820;28;45276;-67
2021/04/10 01:40:35;;;;;;;;;;;;;;;;;;2106075;28;43053;-65
2021/04/10 01:41:40;;;;;;;;;;;;;;;;;;2106082;28;46630;-65
2021/04/10 01:42:42;;;;;;;;;;;;;;;;;;2114566;28;44401;-66
2021/04/10 01:43:43;;;;;;;;;;;;;;;;;;2114564;28;44592;-64
2021/04/10 01:44:44;;;;;;;;;;;;;;;;;;2106105;28;45854;-64
2021/04/10 01:45:45;;;;;;;;;;;;;;;;;;2106187;28;45793;-64
2021/04/10 01:46:48;;;;;;;;;;;;;;;;;;2107101;28;14824;-64
2021/04/10 01:47:49;;;;;;;;;;;;;;;;;;2106011;28;46543;-64
2021/04/10 01:49:01;;;;;;;;;;;;;;;;;;;;;
2021/04/10 01:50:03;;;;;;;;;;;;;;;;;;2114580;28;47100;-64
2021/04/10 01:51:04;;;;;;;;;;;;;;;;;;2115023;27;44587;-64
2021/04/10 01:52:06;;;;;;;;;;;;;;;;;;2114142;28;45775;-64
2021/04/10 01:53:08;;;;;;;;;;;;;;;;;;2114440;28;44780;-64
2021/04/10 01:54:10;;;;;;;;;;;;;;;;;;2114911;27;45727;-64
2021/04/10 01:55:11;;;;;;;;;;;;;;;;;;2114813;27;46898;-64
2021/04/10 01:56:13;;;;;;;;;;;;;;;;;;2123128;27;46032;-64
2021/04/10 01:57:18;;;;;;;;;;;;;;;;;;2122965;27;45875;-65
2021/04/10 01:58:19;;;;;;;;;;;;;;;;;;2115276;27;45863;-65
2021/04/10 01:59:21;;;;;;;;;;;;;;;;;;2122610;27;44911;-66
2021/04/10 02:00:24;;;;;;;;;;;;;;;;;;2122965;27;45380;-64
2021/04/10 02:01:26;;;;;;;;;;;;;;;;;;2123313;27;46897;-64
2021/04/10 02:02:27;;;;;;;;;;;;;;;;;;2123629;27;44586;-63
2021/04/10 02:03:28;;;;;;;;;;;;;;;;;;2123256;27;43498;-63
2021/04/10 02:04:31;;;;;;;;;;;;;;;;;;2114309;27;46890;-64
2021/04/10 02:05:33;;;;;;;;;;;;;;;;;;2115016;27;46755;-64
2021/04/10 02:06:34;;;;;;;;;;;;;;;;;;2122779;27;45361;-65
2021/04/10 02:07:35;;;;;;;;;;;;;;;;;;2122936;27;46386;-65
2021/04/10 02:08:38;;;;;;;;;;;;;;;;;;2114529;27;45191;-65
2021/04/10 02:09:46;;;;;;;;;;;;;;;;;;2114430;27;45317;-65
2021/04/10 02:10:47;;;;;;;;;;;;;;;;;;2115480;27;45208;-65
2021/04/10 02:11:49;;;;;;;;;;;;;;;;;;2114251;27;45248;-65
2021/04/10 02:12:52;;;;;;;;;;;;;;;;;;2114607;27;45062;-65
2021/04/10 02:13:54;;;;;;;;;;;;;;;;;;2122648;27;45449;-65
2021/04/10 02:14:57;;;;;;;;;;;;;;;;;;2123413;27;46471;-65
2021/04/10 02:15:58;;;;;;;;;;;;;;;;;;2122827;27;45206;-65
2021/04/10 02:17:00;;;;;;;;;;;;;;;;;;2114800;27;45165;-65
2021/04/10 02:18:01;;;;;;;;;;;;;;;;;;2122671;27;45664;-64
2021/04/10 02:19:02;;;;;;;;;;;;;;;;;;2122823;27;45318;-65
2021/04/10 02:20:06;;;;;;;;;;;;;;;;;;2114232;27;45445;-65
2021/04/10 02:21:08;;;;;;;;;;;;;;;;;;2122855;27;44794;-65
2021/04/10 02:22:10;;;;;;;;;;;;;;;;;;2122659;27;46364;-65
2021/04/10 02:23:14;;;;;;;;;;;;;;;;;;2122876;27;45268;-66
2021/04/10 02:24:16;;;;;;;;;;;;;;;;;;2114629;27;46755;-65
2021/04/10 02:25:18;;;;;;;;;;;;;;;;;;2114297;27;45066;-64
2021/04/10 02:26:22;;;;;;;;;;;;;;;;;;2114257;27;46135;-64
2021/04/10 02:27:23;;;;;;;;;;;;;;;;;;2115111;27;45161;-64
2021/04/10 02:28:24;;;;;;;;;;;;;;;;;;2114138;27;45406;-64
2021/04/10 02:29:25;;;;;;;;;;;;;;;;;;2122755;27;45471;-64
2021/04/10 02:30:25;;;;;;;;;;;;;;;;;;2122610;27;45228;-64
2021/04/10 02:31:39;;;;;;;;;;;;;;;;;;2122661;27;43009;-64
2021/04/10 02:32:47;;;;;;;;;;;;;;;;;;2122477;27;46373;-64
2021/04/10 02:33:49;;;;;;;;;;;;;;;;;;2115056;27;46960;-65
2021/04/10 02:34:55;;;;;;;;;;;;;;;;;;2122709;27;45397;-66
2021/04/10 02:35:57;;;;;;;;;;;;;;;;;;2123319;27;45632;-65
2021/04/10 02:36:58;;;;;;;;;;;;;;;;;;2123315;27;44099;-66
2021/04/10 02:38:00;;;;;;;;;;;;;;;;;;2123381;27;45501;-66
2021/04/10 02:39:01;;;;;;;;;;;;;;;;;;2122583;27;46053;-65
2021/04/10 02:40:06;;;;;;;;;;;;;;;;;;2114245;27;47044;-66
2021/04/10 02:41:08;;;;;;;;;;;;;;;;;;2114691;27;45420;-65
2021/04/10 02:42:10;;;;;;;;;;;;;;;;;;2114034;27;45715;-65
2021/04/10 02:43:12;;;;;;;;;;;;;;;;;;2114244;27;45536;-65
2021/04/10 02:44:15;;;;;;;;;;;;;;;;;;2114289;27;44616;-65
2021/04/10 02:45:20;;;;;;;;;;;;;;;;;;2114025;27;45350;-65
2021/04/10 02:46:26;;;;;;;;;;;;;;;;;;2122927;27;44581;-65
2021/04/10 02:47:28;;;;;;;;;;;;;;;;;;2123075;27;44121;-65
2021/04/10 02:48:38;;;;;;;;;;;;;;;;;;2114959;27;45674;-65
2021/04/10 02:49:41;;;;;;;;;;;;;;;;;;2123721;27;44350;-65
2021/04/10 02:50:43;;;;;;;;;;;;;;;;;;2123084;27;45902;-65
2021/04/10 02:51:47;;;;;;;;;;;;;;;;;;2114094;27;47109;-65
2021/04/10 02:52:48;;;;;;;;;;;;;;;;;;2122359;27;47115;-65
2021/04/10 02:53:51;;;;;;;;;;;;;;;;;;2123256;27;46896;-65
2021/04/10 02:54:52;;;;;;;;;;;;;;;;;;2122902;27;46899;-65
2021/04/10 02:55:55;;;;;;;;;;;;;;;;;;2122444;27;45626;-65
2021/04/10 02:57:01;;;;;;;;;;;;;;;;;;2122643;27;45810;-65
2021/04/10 02:58:04;;;;;;;;;;;;;;;;;;2122589;27;45837;-65
2021/04/10 02:59:06;;;;;;;;;;;;;;;;;;2113729;27;47232;-64
2021/04/10 03:00:08;;;;;;;;;;;;;;;;;;2122263;27;46079;-64
2021/04/10 03:01:09;;;;;;;;;;;;;;;;;;2122346;27;46862;-65
2021/04/10 03:02:11;;;;;;;;;;;;;;;;;;2113755;27;46865;-65
2021/04/10 03:03:13;;;;;;;;;;;;;;;;;;2114244;27;46432;-65
2021/04/10 03:04:15;;;;;;;;;;;;;;;;;;2122428;27;46949;-65
2021/04/10 03:05:16;;;;;;;;;;;;;;;;;;2114182;27;45285;-65
2021/04/10 03:06:17;;;;;;;;;;;;;;;;;;2114049;27;45815;-64
2021/04/10 03:07:19;;;;;;;;;;;;;;;;;;2114035;27;46157;-65
2021/04/10 03:08:21;;;;;;;;;;;;;;;;;;2122537;27;45825;-64
2021/04/10 03:09:22;;;;;;;;;;;;;;;;;;2122399;27;47012;-64
2021/04/10 03:10:23;;;;;;;;;;;;;;;;;;2122433;27;44110;-64
2021/04/10 03:11:25;;;;;;;;;;;;;;;;;;2122952;27;45556;-64
2021/04/10 03:12:26;;;;;;;;;;;;;;;;;;2122679;27;45806;-64
2021/04/10 03:13:27;;;;;;;;;;;;;;;;;;2114075;27;44042;-63
2021/04/10 03:14:28;;;;;;;;;;;;;;;;;;2113865;27;44047;-64
2021/04/10 03:15:29;;;;;;;;;;;;;;;;;;2114236;27;45675;-65
2021/04/10 03:16:31;;;;;;;;;;;;;;;;;;2113961;27;45542;-65
2021/04/10 03:17:36;;;;;;;;;;;;;;;;;;2122575;27;44214;-65
2021/04/10 03:18:37;;;;;;;;;;;;;;;;;;2122445;27;46895;-65
2021/04/10 03:19:38;;;;;;;;;;;;;;;;;;2113986;27;46456;-65
2021/04/10 03:20:41;;;;;;;;;;;;;;;;;;2114064;27;43869;-64
2021/04/10 03:21:42;;;;;;;;;;;;;;;;;;2122253;27;45210;-64
2021/04/10 03:22:43;;;;;;;;;;;;;;;;;;2122259;27;44114;-64
2021/04/10 03:23:44;;;;;;;;;;;;;;;;;;2122475;27;45257;-65
2021/04/10 03:24:45;;;;;;;;;;;;;;;;;;2122302;27;46285;-64
2021/04/10 03:25:46;;;;;;;;;;;;;;;;;;2112776;27;45114;-63
2021/04/10 03:26:47;;;;;;;;;;;;;;;;;;2113871;27;45376;-64
2021/04/10 03:27:48;;;;;;;;;;;;;;;;;;2122441;27;46320;-64
2021/04/10 03:28:49;;;;;;;;;;;;;;;;;;2113867;27;46437;-64
2021/04/10 03:29:51;;;;;;;;;;;;;;;;;;2122328;27;45023;-64
2021/04/10 03:31:04;;;;;;;;;;;;;;;;;;2122186;27;46695;-64
2021/04/10 03:32:06;;;;;;;;;;;;;;;;;;2115370;27;45113;-64
2021/04/10 03:33:07;;;;;;;;;;;;;;;;;;2113793;27;45058;-64
2021/04/10 03:34:08;;;;;;;;;;;;;;;;;;2122669;27;46648;-64
2021/04/10 03:35:10;;;;;;;;;;;;;;;;;;2122992;27;46430;-64
2021/04/10 03:36:11;;;;;;;;;;;;;;;;;;2122452;27;44253;-63
2021/04/10 03:37:12;;;;;;;;;;;;;;;;;;2122268;27;46516;-64
2021/04/10 03:38:13;;;;;;;;;;;;;;;;;;2122987;27;45265;-64
2021/04/10 03:39:14;;;;;;;;;;;;;;;;;;2122832;27;45379;-64
2021/04/10 03:40:15;;;;;;;;;;;;;;;;;;2122315;27;45355;-64
2021/04/10 03:41:16;;;;;;;;;;;;;;;;;;2113851;27;46622;-64
2021/04/10 03:42:21;;;;;;;;;;;;;;;;;;2113448;27;45058;-63
2021/04/10 03:43:21;;;;;;;;;;;;;;;;;;2122322;27;44591;-64
2021/04/10 03:44:23;;;;;;;;;;;;;;;;;;2122208;27;43983;-64
2021/04/10 03:45:24;;;;;;;;;;;;;;;;;;2122017;27;45308;-64
2021/04/10 03:46:26;;;;;;;;;;;;;;;;;;2114134;27;44104;-64
2021/04/10 03:47:27;;;;;;;;;;;;;;;;;;2113938;27;45033;-64
2021/04/10 03:48:28;;;;;;;;;;;;;;;;;;2122288;27;46420;-64
2021/04/10 03:49:29;;;;;;;;;;;;;;;;;;2113861;27;46704;-64
2021/04/10 03:50:30;;;;;;;;;;;;;;;;;;2122294;27;44813;-65
2021/04/10 03:51:32;;;;;;;;;;;;;;;;;;2122184;27;45604;-64
2021/04/10 03:52:33;;;;;;;;;;;;;;;;;;2113791;27;43755;-65
2021/04/10 03:53:34;;;;;;;;;;;;;;;;;;2113932;27;44887;-64
2021/04/10 03:54:35;;;;;;;;;;;;;;;;;;2122244;27;45249;-64
2021/04/10 03:55:36;;;;;;;;;;;;;;;;;;2122337;27;45348;-64
2021/04/10 03:56:37;;;;;;;;;;;;;;;;;;2122220;27;46178;-65
2021/04/10 03:57:38;;;;;;;;;;;;;;;;;;2122254;27;44199;-64
2021/04/10 03:58:41;;;;;;;;;;;;;;;;;;2122331;27;45622;-65
2021/04/10 03:59:42;;;;;;;;;;;;;;;;;;2122210;27;44552;-64
2021/04/10 04:00:43;;;;;;;;;;;;;;;;;;2113813;27;45861;-64
2021/04/10 04:01:43;;;;;;;;;;;;;;;;;;2121882;27;46979;-64
2021/04/10 04:02:44;;;;;;;;;;;;;;;;;;2121915;27;47171;-64
2021/04/10 04:03:45;;;;;;;;;;;;;;;;;;2122302;27;45814;-64
2021/04/10 04:04:46;;;;;;;;;;;;;;;;;;2122170;27;46782;-64
2021/04/10 04:05:47;;;;;;;;;;;;;;;;;;2113713;27;47261;-64
2021/04/10 04:06:48;;;;;;;;;;;;;;;;;;2113749;27;47081;-64
2021/04/10 04:07:49;;;;;;;;;;;;;;;;;;2122035;27;45779;-65
2021/04/10 04:08:50;;;;;;;;;;;;;;;;;;2122824;27;45808;-64
2021/04/10 04:09:51;;;;;;;;;;;;;;;;;;2121986;27;45754;-64
2021/04/10 04:10:51;;;;;;;;;;;;;;;;;;2114718;27;46862;-64
2021/04/10 04:11:52;;;;;;;;;;;;;;;;;;2123543;27;46203;-64
2021/04/10 04:12:54;;;;;;;;;;;;;;;;;;2123555;27;46118;-64
2021/04/10 04:13:54;;;;;;;;;;;;;;;;;;2115186;27;44568;-64
2021/04/10 04:14:55;;;;;;;;;;;;;;;;;;2115070;28;45728;-64
2021/04/10 04:15:56;;;;;;;;;;;;;;;;;;2115047;27;46760;-64
2021/04/10 04:16:57;;;;;;;;;;;;;;;;;;2115210;27;46894;-65
2021/04/10 04:17:58;;;;;;;;;;;;;;;;;;2123939;27;45824;-64
2021/04/10 04:18:59;;;;;;;;;;;;;;;;;;2124246;27;43938;-66
2021/04/10 04:20:00;;;;;;;;;;;;;;;;;;2124231;27;45492;-65
2021/04/10 04:21:01;;;;;;;;;;;;;;;;;;2123358;27;45245;-65
2021/04/10 04:22:02;;;;;;;;;;;;;;;;;;2114763;27;46586;-66
2021/04/10 04:23:03;;;;;;;;;;;;;;;;;;2123545;27;43315;-64
2021/04/10 04:24:04;;;;;;;;;;;;;;;;;;2123499;27;46497;-64
2021/04/10 04:25:07;;;;;;;;;;;;;;;;;;2115160;27;45117;-64
2021/04/10 04:26:08;;;;;;;;;;;;;;;;;;2123498;27;44322;-64
2021/04/10 04:27:09;;;;;;;;;;;;;;;;;;2124146;27;45782;-64
2021/04/10 04:28:13;;;;;;;;;;;;;;;;;;2124104;27;46425;-64
2021/04/10 04:29:14;;;;;;;;;;;;;;;;;;2123459;27;46363;-64
2021/04/10 04:30:15;;;;;;;;;;;;;;;;;;2123502;27;46609;-64
2021/04/10 04:31:16;;;;;;;;;;;;;;;;;;2123516;27;45134;-64
2021/04/10 04:32:17;;;;;;;;;;;;;;;;;;2123206;27;46345;-65
2021/04/10 04:33:21;;;;;;;;;;;;;;;;;;2123663;27;46234;-67
2021/04/10 04:34:22;;;;;;;;;;;;;;;;;;2115507;27;43746;-66
2021/04/10 04:35:23;;;;;;;;;;;;;;;;;;2123352;27;45470;-67
2021/04/10 04:36:24;;;;;;;;;;;;;;;;;;2123399;27;46399;-66
2021/04/10 04:37:25;;;;;;;;;;;;;;;;;;2115159;27;45258;-66
2021/04/10 04:38:25;;;;;;;;;;;;;;;;;;2123456;27;45186;-66
2021/04/10 04:39:26;;;;;;;;;;;;;;;;;;2124332;27;45052;-66
2021/04/10 04:40:27;;;;;;;;;;;;;;;;;;2123387;27;46367;-66
2021/04/10 04:41:28;;;;;;;;;;;;;;;;;;2114621;27;44926;-65
2021/04/10 04:42:29;;;;;;;;;;;;;;;;;;2123249;27;46355;-67
2021/04/10 04:43:30;;;;;;;;;;;;;;;;;;2123404;27;45374;-65
2021/04/10 04:44:31;;;;;;;;;;;;;;;;;;2123488;27;43651;-66
2021/04/10 04:45:32;;;;;;;;;;;;;;;;;;2123154;27;46746;-64
2021/04/10 04:46:33;;;;;;;;;;;;;;;;;;2115045;27;46629;-65
2021/04/10 04:47:34;;;;;;;;;;;;;;;;;;2115107;27;45379;-66
2021/04/10 04:48:35;;;;;;;;;;;;;;;;;;2123419;27;46332;-66
2021/04/10 04:49:37;;;;;;;;;;;;;;;;;;2123204;27;45328;-66
2021/04/10 04:50:38;;;;;;;;;;;;;;;;;;2124089;27;45663;-66
2021/04/10 04:51:39;;;;;;;;;;;;;;;;;;2123746;27;46646;-66
2021/04/10 04:52:40;;;;;;;;;;;;;;;;;;2122915;27;45734;-65
2021/04/10 04:53:41;;;;;;;;;;;;;;;;;;2114498;27;45345;-67
2021/04/10 04:54:41;;;;;;;;;;;;;;;;;;2114707;27;46911;-66
2021/04/10 04:55:42;;;;;;;;;;;;;;;;;;2123093;27;42846;-66
2021/04/10 04:56:43;;;;;;;;;;;;;;;;;;2114779;27;45282;-64
2021/04/10 04:57:44;;;;;;;;;;;;;;;;;;2114721;27;46435;-63
2021/04/10 04:58:45;;;;;;;;;;;;;;;;;;2123171;27;46380;-64
2021/04/10 04:59:46;;;;;;;;;;;;;;;;;;2123357;27;44014;-64
2021/04/10 05:00:47;;;;;;;;;;;;;;;;;;2115166;27;46623;-63
2021/04/10 05:01:48;;;;;;;;;;;;;;;;;;2123186;27;44110;-63
2021/04/10 05:02:49;;;;;;;;;;;;;;;;;;2122850;27;47191;-64
2021/04/10 05:03:50;;;;;;;;;;;;;;;;;;2123005;27;46895;-64
2021/04/10 05:04:51;;;;;;;;;;;;;;;;;;2123078;27;44215;-65
2021/04/10 05:05:52;;;;;;;;;;;;;;;;;;2114593;27;44262;-65
2021/04/10 05:06:53;;;;;;;;;;;;;;;;;;2114530;27;46847;-65
2021/04/10 05:07:54;;;;;;;;;;;;;;;;;;2114555;27;48952;-64
2021/04/10 05:08:54;;;;;;;;;;;;;;;;;;2123046;27;46843;-65
2021/04/10 05:09:55;;;;;;;;;;;;;;;;;;2123201;27;46030;-65
2021/04/10 05:10:56;;;;;;;;;;;;;;;;;;2114494;27;47150;-65
2021/04/10 05:11:57;;;;;;;;;;;;;;;;;;2122853;27;45920;-66
2021/04/10 05:12:58;;;;;;;;;;;;;;;;;;2123863;27;45839;-65
2021/04/10 05:13:59;;;;;;;;;;;;;;;;;;2123601;27;47125;-65
2021/04/10 05:15:00;;;;;;;;;;;;;;;;;;2123354;27;47066;-65
2021/04/10 05:16:01;;;;;;;;;;;;;;;;;;2123708;27;47048;-64
2021/04/10 05:17:02;;;;;;;;;;;;;;;;;;2122883;27;45898;-65
2021/04/10 05:18:03;;;;;;;;;;;;;;;;;;2114467;27;46144;-64
2021/04/10 05:19:04;;;;;;;;;;;;;;;;;;2114465;27;47013;-65
2021/04/10 05:20:07;;;;;;;;;;;;;;;;;;2123008;27;45737;-64
2021/04/10 05:21:08;;;;;;;;;;;;;;;;;;2114995;27;46886;-65
2021/04/10 05:22:09;;;;;;;;;;;;;;;;;;2113239;27;47075;-64
2021/04/10 05:23:10;;;;;;;;;;;;;;;;;;2114715;27;45758;-65
2021/04/10 05:24:11;;;;;;;;;;;;;;;;;;2122852;27;45104;-65
2021/04/10 05:25:12;;;;;;;;;;;;;;;;;;2123690;27;44991;-64
2021/04/10 05:26:13;;;;;;;;;;;;;;;;;;2123817;27;45397;-64
2021/04/10 05:27:14;;;;;;;;;;;;;;;;;;2123137;27;46371;-64
2021/04/10 05:28:15;;;;;;;;;;;;;;;;;;2123162;27;45019;-63
2021/04/10 05:29:16;;;;;;;;;;;;;;;;;;2123152;27;43799;-64
2021/04/10 05:30:17;;;;;;;;;;;;;;;;;;2114665;27;43870;-63
2021/04/10 05:31:18;;;;;;;;;;;;;;;;;;2114727;27;43777;-63
2021/04/10 05:32:19;;;;;;;;;;;;;;;;;;2122651;27;46368;-66
2021/04/10 05:33:20;;;;;;;;;;;;;;;;;;2114458;27;45356;-67
2021/04/10 05:34:20;;;;;;;;;;;;;;;;;;2114595;27;45539;-66
2021/04/10 05:35:21;;;;;;;;;;;;;;;;;;2114514;27;43432;-66
2021/04/10 05:36:22;;;;;;;;;;;;;;;;;;2123442;27;42681;-65
2021/04/10 05:37:23;;;;;;;;;;;;;;;;;;2122887;27;43710;-65
2021/04/10 05:38:24;;;;;;;;;;;;;;;;;;2114529;27;44099;-66
2021/04/10 05:39:25;;;;;;;;;;;;;;;;;;2114517;27;45489;-66
2021/04/10 05:40:26;;;;;;;;;;;;;;;;;;2122928;27;46542;-66
2021/04/10 05:41:27;;;;;;;;;;;;;;;;;;2114549;27;43850;-65
2021/04/10 05:42:29;;;;;;;;;;;;;;;;;;2122853;27;45495;-66
2021/04/10 05:43:30;;;;;;;;;;;;;;;;;;2123053;27;44023;-67
2021/04/10 05:44:35;;;;;;;;;;;;;;;;;;2115419;27;46211;-67
2021/04/10 05:45:35;;;;;;;;;;;;;;;;;;2122993;27;43977;-66
2021/04/10 05:46:36;;;;;;;;;;;;;;;;;;2123036;27;45392;-66
2021/04/10 05:47:38;;;;;;;;;;;;;;;;;;2114575;27;45689;-66
2021/04/10 05:48:39;;;;;;;;;;;;;;;;;;2122985;27;46771;-66
2021/04/10 05:49:40;;;;;;;;;;;;;;;;;;2123637;27;43480;-66
2021/04/10 05:50:41;;;;;;;;;;;;;;;;;;2122962;27;46838;-67
2021/04/10 05:51:42;;;;;;;;;;;;;;;;;;2114511;27;45348;-67
2021/04/10 05:52:43;;;;;;;;;;;;;;;;;;2114340;27;45678;-67
2021/04/10 05:53:45;;;;;;;;;;;;;;;;;;2114516;27;45407;-67
2021/04/10 05:54:46;;;;;;;;;;;;;;;;;;2114573;27;46319;-68
2021/04/10 05:55:47;;;;;;;;;;;;;;;;;;2114413;27;46609;-67
2021/04/10 05:56:48;;;;;;;;;;;;;;;;;;2122943;27;46415;-67
2021/04/10 05:57:51;;;;;;;;;;;;;;;;;;2122947;27;45698;-68
2021/04/10 05:58:52;;;;;;;;;;;;;;;;;;2122816;27;41322;-68
2021/04/10 05:59:53;;;;;;;;;;;;;;;;;;2122952;27;44927;-67
2021/04/10 06:00:54;;;;;;;;;;;;;;;;;;2114465;27;42895;-66
2021/04/10 06:01:55;;;;;;;;;;;;;;;;;;2122648;27;45358;-67
2021/04/10 06:02:58;;;;;;;;;;;;;;;;;;2122825;27;43754;-66
2021/04/10 06:04:00;;;;;;;;;;;;;;;;;;2114803;27;46299;-66
2021/04/10 06:05:01;;;;;;;;;;;;;;;;;;2123041;27;45487;-66
2021/04/10 06:06:02;;;;;;;;;;;;;;;;;;2123287;27;45249;-67
2021/04/10 06:07:03;;;;;;;;;;;;;;;;;;2114422;27;45867;-69
2021/04/10 06:08:05;;;;;;;;;;;;;;;;;;2114368;27;46454;-68
2021/04/10 06:09:06;;;;;;;;;;;;;;;;;;2122599;27;46856;-68
2021/04/10 06:10:07;;;;;;;;;;;;;;;;;;2122939;27;45730;-69
2021/04/10 06:11:09;;;;;;;;;;;;;;;;;;2123267;27;45763;-68
2021/04/10 06:12:10;;;;;;;;;;;;;;;;;;2122523;27;43926;-69
2021/04/10 06:13:11;;;;;;;;;;;;;;;;;;2122912;27;45755;-68
2021/04/10 06:14:12;;;;;;;;;;;;;;;;;;2123450;27;45815;-70
2021/04/10 06:15:16;;;;;;;;;;;;;;;;;;2123538;27;45792;-68
2021/04/10 06:16:17;;;;;;;;;;;;;;;;;;2122900;27;44554;-68
2021/04/10 06:17:18;;;;;;;;;;;;;;;;;;2122811;27;47044;-67
2021/04/10 06:18:19;;;;;;;;;;;;;;;;;;2114356;27;45562;-66
2021/04/10 06:19:20;;;;;;;;;;;;;;;;;;2114408;27;47271;-67
2021/04/10 06:20:22;;;;;;;;;;;;;;;;;;2114514;27;45964;-68
2021/04/10 06:21:23;;;;;;;;;;;;;;;;;;2114147;27;45994;-69
2021/04/10 06:22:23;;;;;;;;;;;;;;;;;;2114001;27;45771;-68
2021/04/10 06:23:24;;;;;;;;;;;;;;;;;;2114365;27;45873;-67
2021/04/10 06:24:26;;;;;;;;;;;;;;;;;;2114438;27;47999;-68
2021/04/10 06:25:27;;;;;;;;;;;;;;;;;;2114300;27;47176;-69
2021/04/10 06:26:28;;;;;;;;;;;;;;;;;;2114322;27;44726;-68
2021/04/10 06:27:29;;;;;;;;;;;;;;;;;;2114256;27;45356;-68
2021/04/10 06:28:30;;;;;;;;;;;;;;;;;;2123216;27;46834;-67
2021/04/10 06:29:30;;;;;;;;;;;;;;;;;;2122664;27;46590;-68
2021/04/10 06:30:31;;;;;;;;;;;;;;;;;;2114329;27;45363;-67
2021/04/10 06:31:32;;;;;;;;;;;;;;;;;;2113795;27;43985;-68
2021/04/10 06:32:34;;;;;;;;;;;;;;;;;;2113960;27;45369;-68
2021/04/10 06:33:35;;;;;;;;;;;;;;;;;;2113923;27;45548;-68
2021/04/10 06:34:36;;;;;;;;;;;;;;;;;;2113498;27;43959;-68
2021/04/10 06:35:37;;;;;;;;;;;;;;;;;;2122854;27;43399;-67
2021/04/10 06:36:38;;;;;;;;;;;;;;;;;;2122688;27;43224;-66
2021/04/10 06:37:39;;;;;;;;;;;;;;;;;;2114158;27;45367;-68
2021/04/10 06:38:40;;;;;;;;;;;;;;;;;;2114163;27;45235;-68
2021/04/10 06:39:41;;;;;;;;;;;;;;;;;;2114313;27;45143;-67
2021/04/10 06:40:43;;;;;;;;;;;;;;;;;;2122675;27;42848;-67
2021/04/10 06:41:44;;;;;;;;;;;;;;;;;;2122530;27;41698;-66
2021/04/10 06:42:45;;;;;;;;;;;;;;;;;;2122325;27;46396;-68
2021/04/10 06:43:46;;;;;;;;;;;;;;;;;;2122738;27;43073;-68
2021/04/10 06:44:47;;;;;;;;;;;;;;;;;;2114119;27;45455;-68
2021/04/10 06:45:49;;;;;;;;;;;;;;;;;;2114256;27;45102;-68
2021/04/10 06:46:52;;;;;;;;;;;;;;;;;;2114036;27;45014;-67
2021/04/10 06:47:53;;;;;;;;;;;;;;;;;;2114421;27;45400;-67
2021/04/10 06:48:57;;;;;;;;;;;;;;;;;;2114211;27;45261;-67
2021/04/10 06:49:58;;;;;;;;;;;;;;;;;;2115288;27;44315;-67
2021/04/10 06:51:00;;;;;;;;;;;;;;;;;;2122443;27;46500;-65
2021/04/10 06:52:01;;;;;;;;;;;;;;;;;;2122535;27;45486;-64
2021/04/10 06:53:03;;;;;;;;;;;;;;;;;;2122642;27;46459;-64
2021/04/10 06:54:07;;;;;;;;;;;;;;;;;;2123219;27;46690;-65
2021/04/10 06:55:09;;;;;;;;;;;;;;;;;;2123153;27;45658;-64
2021/04/10 06:56:12;;;;;;;;;;;;;;;;;;2122539;27;46701;-65
2021/04/10 06:57:14;;;;;;;;;;;;;;;;;;2114279;27;45399;-65
2021/04/10 06:58:28;;;;;;;;;;;;;;;;;;2122581;27;44945;-65
2021/04/10 06:59:38;;;;;;;;;;;;;;;;;;2122324;27;46935;-65
2021/04/10 07:00:39;;;;;;;;;;;;;;;;;;2113901;27;45463;-65
2021/04/10 07:01:41;;;;;;;;;;;;;;;;;;2106569;28;45390;-65
2021/04/10 07:02:43;;;;;;;;;;;;;;;;;;2113546;27;44046;-65